createdAt,value
2017-07-11T00:00:55.058Z,17.62
2017-07-11T00:02:03.978Z,17.63
2017-07-11T00:03:12.894Z,17.62
2017-07-11T00:04:21.817Z,17.49
2017-07-11T00:05:30.735Z,17.59
2017-07-11T00:06:39.657Z,17.52
2017-07-11T00:07:48.571Z,17.51
2017-07-11T00:08:57.489Z,17.62
2017-07-11T00:10:06.487Z,17.63
2017-07-11T00:11:15.403Z,17.7
2017-07-11T00:12:24.329Z,17.59
2017-07-11T00:13:33.336Z,17.59
2017-07-11T00:14:42.258Z,17.55
2017-07-11T00:15:51.177Z,17.63
2017-07-11T00:17:00.101Z,17.56
2017-07-11T00:18:09.026Z,17.58
2017-07-11T00:19:17.946Z,17.55
2017-07-11T00:20:26.865Z,17.55
2017-07-11T00:21:35.780Z,17.58
2017-07-11T00:22:44.697Z,17.48
2017-07-11T00:23:53.616Z,17.51
2017-07-11T00:25:02.539Z,17.46
2017-07-11T00:26:11.458Z,17.48
2017-07-11T00:27:20.372Z,17.41
2017-07-11T00:28:29.292Z,17.34
2017-07-11T00:29:38.204Z,17.3
2017-07-11T00:30:47.123Z,17.28
2017-07-11T00:31:56.040Z,17.25
2017-07-11T00:33:04.961Z,17.26
2017-07-11T00:34:13.884Z,17.28
2017-07-11T00:35:22.809Z,17.19
2017-07-11T00:36:31.728Z,17.21
2017-07-11T00:37:40.977Z,17.25
2017-07-11T00:38:49.898Z,17.34
2017-07-11T00:39:58.816Z,17.31
2017-07-11T00:41:07.737Z,17.23
2017-07-11T00:42:16.658Z,17.37
2017-07-11T00:43:25.577Z,17.46
2017-07-11T00:44:34.490Z,17.41
2017-07-11T00:45:43.418Z,17.38
2017-07-11T00:46:52.339Z,17.44
2017-07-11T00:48:01.265Z,17.43
2017-07-11T00:49:10.185Z,17.51
2017-07-11T00:50:19.102Z,17.52
2017-07-11T00:51:28.022Z,17.51
2017-07-11T00:52:36.950Z,17.4
2017-07-11T00:53:45.877Z,17.44
2017-07-11T00:54:54.797Z,17.51
2017-07-11T00:56:03.714Z,17.49
2017-07-11T00:57:12.637Z,17.54
2017-07-11T00:58:21.573Z,17.52
2017-07-11T00:59:30.488Z,17.46
2017-07-11T01:00:39.401Z,17.43
2017-07-11T01:01:48.317Z,17.51
2017-07-11T01:02:57.232Z,17.4
2017-07-11T01:04:06.146Z,17.41
2017-07-11T01:05:15.063Z,17.4
2017-07-11T01:06:23.978Z,17.33
2017-07-11T01:07:32.900Z,17.3
2017-07-11T01:08:41.825Z,17.25
2017-07-11T01:09:50.742Z,17.3
2017-07-11T01:10:59.662Z,17.25
2017-07-11T01:12:08.586Z,17.36
2017-07-11T01:13:17.511Z,17.31
2017-07-11T01:14:26.432Z,17.3
2017-07-11T01:15:35.348Z,17.25
2017-07-11T01:16:44.260Z,17.36
2017-07-11T01:17:53.174Z,17.31
2017-07-11T01:19:02.100Z,17.38
2017-07-11T01:20:11.015Z,17.4
2017-07-11T01:21:19.927Z,17.43
2017-07-11T01:22:28.851Z,17.38
2017-07-11T01:23:37.861Z,17.38
2017-07-11T01:24:46.777Z,17.36
2017-07-11T01:25:55.690Z,17.36
2017-07-11T01:27:04.606Z,17.41
2017-07-11T01:28:13.530Z,17.46
2017-07-11T01:29:22.452Z,17.49
2017-07-11T01:30:31.371Z,17.36
2017-07-11T01:31:40.291Z,17.44
2017-07-11T01:32:49.215Z,17.34
2017-07-11T01:33:58.133Z,17.37
2017-07-11T01:35:07.046Z,17.31
2017-07-11T01:36:15.967Z,17.28
2017-07-11T01:37:25.226Z,17.25
2017-07-11T01:38:34.152Z,17.28
2017-07-11T01:39:43.065Z,17.33
2017-07-11T01:40:51.982Z,17.18
2017-07-11T01:42:01.233Z,17.21
2017-07-11T01:43:10.153Z,17.22
2017-07-11T01:44:19.064Z,17.25
2017-07-11T01:45:27.976Z,17.28
2017-07-11T01:46:36.892Z,17.19
2017-07-11T01:47:45.812Z,17.21
2017-07-11T01:48:54.738Z,17.23
2017-07-11T01:50:03.659Z,17.15
2017-07-11T01:51:12.584Z,17.15
2017-07-11T01:52:21.504Z,17.15
2017-07-11T01:53:30.422Z,17.21
2017-07-11T01:54:39.345Z,17.15
2017-07-11T01:55:48.269Z,17.14
2017-07-11T01:56:57.192Z,17.14
2017-07-11T01:58:06.104Z,17.11
2017-07-11T01:59:15.019Z,17.19
2017-07-11T02:00:23.941Z,17.15
2017-07-11T02:01:32.862Z,17.18
2017-07-11T02:02:41.787Z,17.15
2017-07-11T02:03:50.699Z,17.15
2017-07-11T02:04:59.700Z,17.11
2017-07-11T02:06:08.617Z,17.22
2017-07-11T02:07:17.537Z,17.21
2017-07-11T02:08:27.196Z,17.26
2017-07-11T02:09:36.119Z,17.28
2017-07-11T02:10:45.043Z,17.3
2017-07-11T02:11:54.054Z,17.25
2017-07-11T02:13:02.985Z,17.28
2017-07-11T02:14:11.890Z,17.12
2017-07-11T02:15:20.808Z,17.15
2017-07-11T02:16:29.725Z,17.18
2017-07-11T02:17:38.641Z,17.14
2017-07-11T02:18:47.567Z,17.16
2017-07-11T02:19:56.486Z,17.11
2017-07-11T02:21:05.405Z,17.03
2017-07-11T02:22:14.329Z,17.07
2017-07-11T02:23:23.247Z,17.03
2017-07-11T02:24:32.165Z,17.07
2017-07-11T02:25:41.087Z,16.97
2017-07-11T02:26:50.003Z,16.98
2017-07-11T02:27:58.918Z,16.93
2017-07-11T02:29:07.840Z,16.93
2017-07-11T02:30:16.755Z,16.89
2017-07-11T02:31:25.671Z,16.83
2017-07-11T02:32:34.596Z,16.93
2017-07-11T02:33:43.513Z,16.85
2017-07-11T02:34:52.429Z,16.85
2017-07-11T02:36:01.354Z,16.82
2017-07-11T02:37:10.268Z,16.85
2017-07-11T02:38:19.179Z,16.88
2017-07-11T02:39:28.097Z,16.86
2017-07-11T02:40:37.009Z,16.83
2017-07-11T02:41:45.922Z,16.71
2017-07-11T02:42:54.846Z,16.7
2017-07-11T02:44:03.771Z,16.53
2017-07-11T02:45:13.017Z,16.56
2017-07-11T02:46:21.945Z,16.58
2017-07-11T02:47:30.865Z,16.48
2017-07-11T02:48:39.781Z,16.5
2017-07-11T02:49:48.701Z,16.52
2017-07-11T02:50:57.615Z,16.6
2017-07-11T02:52:06.537Z,16.56
2017-07-11T02:53:15.455Z,16.46
2017-07-11T02:54:24.371Z,16.46
2017-07-11T02:55:33.619Z,16.48
2017-07-11T02:56:42.622Z,16.48
2017-07-11T02:57:51.542Z,16.43
2017-07-11T02:59:00.472Z,16.46
2017-07-11T03:00:09.718Z,16.49
2017-07-11T03:01:18.634Z,16.45
2017-07-11T03:02:27.555Z,16.42
2017-07-11T03:03:36.473Z,16.45
2017-07-11T03:04:45.389Z,16.43
2017-07-11T03:05:54.309Z,16.45
2017-07-11T03:07:03.227Z,16.38
2017-07-11T03:08:12.149Z,16.39
2017-07-11T03:09:21.067Z,16.42
2017-07-11T03:10:29.991Z,16.41
2017-07-11T03:11:38.912Z,16.35
2017-07-11T03:12:47.832Z,16.38
2017-07-11T03:13:56.753Z,16.39
2017-07-11T03:15:05.673Z,16.42
2017-07-11T03:16:14.593Z,16.46
2017-07-11T03:17:23.516Z,16.41
2017-07-11T03:18:32.437Z,16.39
2017-07-11T03:19:41.434Z,16.41
2017-07-11T03:20:50.363Z,16.38
2017-07-11T03:21:59.282Z,16.39
2017-07-11T03:23:08.196Z,16.33
2017-07-11T03:24:17.120Z,16.33
2017-07-11T03:25:26.045Z,16.33
2017-07-11T03:26:35.292Z,16.33
2017-07-11T03:27:44.213Z,16.33
2017-07-11T03:28:53.135Z,16.24
2017-07-11T03:30:02.049Z,16.27
2017-07-11T03:31:10.967Z,16.23
2017-07-11T03:32:19.886Z,16.24
2017-07-11T03:33:28.806Z,16.33
2017-07-11T03:34:37.725Z,16.33
2017-07-11T03:35:46.642Z,16.31
2017-07-11T03:36:55.560Z,16.33
2017-07-11T03:38:04.560Z,16.35
2017-07-11T03:39:13.477Z,16.35
2017-07-11T03:40:22.402Z,16.28
2017-07-11T03:41:31.319Z,16.25
2017-07-11T03:42:40.319Z,16.24
2017-07-11T03:43:49.915Z,16.33
2017-07-11T03:44:58.832Z,16.35
2017-07-11T03:46:07.752Z,16.27
2017-07-11T03:47:16.975Z,16.24
2017-07-11T03:48:25.895Z,16.35
2017-07-11T03:49:34.823Z,16.28
2017-07-11T03:50:43.735Z,16.39
2017-07-11T03:51:52.648Z,16.41
2017-07-11T03:53:01.567Z,16.35
2017-07-11T03:54:10.481Z,16.27
2017-07-11T03:55:19.395Z,16.31
2017-07-11T03:56:28.644Z,16.33
2017-07-11T03:57:37.562Z,16.28
2017-07-11T03:58:46.483Z,16.33
2017-07-11T03:59:55.401Z,16.33
2017-07-11T04:01:04.320Z,16.31
2017-07-11T04:02:13.237Z,16.28
2017-07-11T04:03:22.156Z,16.3
2017-07-11T04:04:31.077Z,16.25
2017-07-11T04:05:39.986Z,16.33
2017-07-11T04:06:48.909Z,16.24
2017-07-11T04:07:57.829Z,16.23
2017-07-11T04:09:06.750Z,16.12
2017-07-11T04:10:15.670Z,16.17
2017-07-11T04:11:24.586Z,16.3
2017-07-11T04:12:33.502Z,16.31
2017-07-11T04:13:42.420Z,16.38
2017-07-11T04:14:51.335Z,16.33
2017-07-11T04:16:00.257Z,16.43
2017-07-11T04:17:09.170Z,16.46
2017-07-11T04:18:18.095Z,16.53
2017-07-11T04:19:27.021Z,16.56
2017-07-11T04:20:35.941Z,16.56
2017-07-11T04:21:44.860Z,16.6
2017-07-11T04:22:53.776Z,16.56
2017-07-11T04:24:02.692Z,16.5
2017-07-11T04:25:11.620Z,16.43
2017-07-11T04:26:20.870Z,16.43
2017-07-11T04:27:30.146Z,16.41
2017-07-11T04:28:39.069Z,16.38
2017-07-11T04:29:47.994Z,16.42
2017-07-11T04:30:56.911Z,16.45
2017-07-11T04:32:05.830Z,16.39
2017-07-11T04:33:14.749Z,16.38
2017-07-11T04:34:23.665Z,16.43
2017-07-11T04:35:32.583Z,16.43
2017-07-11T04:36:41.508Z,16.45
2017-07-11T04:37:50.424Z,16.49
2017-07-11T04:38:59.341Z,16.39
2017-07-11T04:40:08.344Z,16.43
2017-07-11T04:41:17.259Z,16.45
2017-07-11T04:42:26.174Z,16.5
2017-07-11T04:43:35.098Z,16.42
2017-07-11T04:44:44.018Z,16.56
2017-07-11T04:45:52.933Z,16.56
2017-07-11T04:47:01.939Z,16.63
2017-07-11T04:48:10.862Z,16.73
2017-07-11T04:49:19.777Z,16.64
2017-07-11T04:50:28.700Z,16.7
2017-07-11T04:51:37.615Z,16.73
2017-07-11T04:52:46.537Z,16.78
2017-07-11T04:53:55.456Z,16.75
2017-07-11T04:55:04.461Z,16.78
2017-07-11T04:56:13.464Z,16.75
2017-07-11T04:57:22.389Z,16.75
2017-07-11T04:58:31.311Z,16.82
2017-07-11T04:59:40.233Z,16.86
2017-07-11T05:00:49.154Z,16.94
2017-07-11T05:01:58.066Z,16.89
2017-07-11T05:03:07.071Z,16.89
2017-07-11T05:04:15.984Z,16.93
2017-07-11T05:05:24.901Z,16.86
2017-07-11T05:06:33.825Z,16.89
2017-07-11T05:07:42.744Z,16.89
2017-07-11T05:08:51.670Z,16.93
2017-07-11T05:10:00.593Z,16.96
2017-07-11T05:11:09.513Z,16.96
2017-07-11T05:12:18.430Z,16.97
2017-07-11T05:13:27.348Z,16.98
2017-07-11T05:14:36.264Z,16.94
2017-07-11T05:15:45.184Z,16.94
2017-07-11T05:16:54.115Z,17
2017-07-11T05:18:03.032Z,16.83
2017-07-11T05:19:12.041Z,16.89
2017-07-11T05:20:20.960Z,16.93
2017-07-11T05:21:29.959Z,16.91
2017-07-11T05:22:38.872Z,16.94
2017-07-11T05:23:47.794Z,16.98
2017-07-11T05:24:56.709Z,16.85
2017-07-11T05:26:05.623Z,16.81
2017-07-11T05:27:14.621Z,16.78
2017-07-11T05:28:23.542Z,16.81
2017-07-11T05:29:32.541Z,16.81
2017-07-11T05:30:41.459Z,16.93
2017-07-11T05:31:50.377Z,16.93
2017-07-11T05:32:59.300Z,16.94
2017-07-11T05:34:08.228Z,16.98
2017-07-11T05:35:17.152Z,16.98
2017-07-11T05:36:26.070Z,16.88
2017-07-11T05:37:34.991Z,16.97
2017-07-11T05:38:43.913Z,16.91
2017-07-11T05:39:52.838Z,16.88
2017-07-11T05:41:01.759Z,16.85
2017-07-11T05:42:10.682Z,16.81
2017-07-11T05:43:19.605Z,16.82
2017-07-11T05:44:28.518Z,16.76
2017-07-11T05:45:37.439Z,16.81
2017-07-11T05:46:46.346Z,16.79
2017-07-11T05:47:55.267Z,16.81
2017-07-11T05:49:04.183Z,16.78
2017-07-11T05:50:13.105Z,16.83
2017-07-11T05:51:22.018Z,16.86
2017-07-11T05:52:30.932Z,16.88
2017-07-11T05:53:39.853Z,16.96
2017-07-11T05:54:48.775Z,16.91
2017-07-11T05:55:57.694Z,16.89
2017-07-11T05:57:06.616Z,16.85
2017-07-11T05:58:15.537Z,16.94
2017-07-11T05:59:24.458Z,17
2017-07-11T06:00:33.371Z,17.07
2017-07-11T06:01:42.298Z,17.15
2017-07-11T06:02:51.217Z,17.15
2017-07-11T06:04:00.127Z,17.15
2017-07-11T06:05:09.047Z,17.12
2017-07-11T06:06:17.969Z,17.19
2017-07-11T06:07:26.884Z,17.21
2017-07-11T06:08:35.802Z,17.28
2017-07-11T06:09:44.718Z,17.21
2017-07-11T06:10:53.633Z,17.22
2017-07-11T06:12:02.602Z,17.21
2017-07-11T06:13:11.460Z,17.19
2017-07-11T06:14:20.380Z,17.21
2017-07-11T06:15:29.299Z,17.22
2017-07-11T06:16:38.300Z,17.19
2017-07-11T06:17:47.304Z,17.18
2017-07-11T06:18:56.226Z,17.23
2017-07-11T06:20:05.151Z,17.31
2017-07-11T06:21:14.071Z,17.3
2017-07-11T06:22:22.995Z,17.28
2017-07-11T06:23:31.907Z,17.34
2017-07-11T06:24:40.826Z,17.34
2017-07-11T06:25:49.806Z,17.36
2017-07-11T06:26:58.669Z,17.38
2017-07-11T06:28:07.590Z,17.34
2017-07-11T06:29:16.508Z,17.26
2017-07-11T06:30:25.428Z,17.22
2017-07-11T06:31:34.341Z,17.34
2017-07-11T06:32:43.263Z,17.3
2017-07-11T06:33:52.190Z,17.25
2017-07-11T06:35:01.105Z,17.31
2017-07-11T06:36:10.353Z,17.28
2017-07-11T06:37:19.277Z,17.37
2017-07-11T06:38:28.197Z,17.49
2017-07-11T06:39:37.118Z,17.4
2017-07-11T06:40:46.032Z,17.44
2017-07-11T06:41:54.950Z,17.44
2017-07-11T06:43:03.873Z,17.4
2017-07-11T06:44:12.795Z,17.44
2017-07-11T06:45:21.713Z,17.44
2017-07-11T06:46:30.634Z,17.49
2017-07-11T06:47:39.560Z,17.49
2017-07-11T06:48:48.480Z,17.52
2017-07-11T06:49:57.399Z,17.54
2017-07-11T06:51:06.316Z,17.49
2017-07-11T06:52:15.231Z,17.63
2017-07-11T06:53:24.149Z,17.64
2017-07-11T06:54:33.066Z,17.74
2017-07-11T06:55:41.988Z,17.78
2017-07-11T06:56:50.913Z,17.75
2017-07-11T06:57:59.827Z,17.79
2017-07-11T06:59:08.745Z,17.74
2017-07-11T07:00:17.669Z,17.87
2017-07-11T07:01:26.597Z,17.84
2017-07-11T07:02:35.508Z,17.84
2017-07-11T07:03:44.518Z,17.84
2017-07-11T07:04:53.440Z,17.84
2017-07-11T07:06:02.355Z,17.87
2017-07-11T07:07:11.276Z,17.82
2017-07-11T07:08:20.204Z,17.89
2017-07-11T07:09:29.123Z,17.81
2017-07-11T07:10:38.047Z,17.9
2017-07-11T07:11:47.296Z,17.82
2017-07-11T07:12:56.215Z,17.86
2017-07-11T07:14:05.136Z,17.89
2017-07-11T07:15:14.061Z,17.82
2017-07-11T07:16:22.970Z,17.97
2017-07-11T07:17:31.891Z,17.82
2017-07-11T07:18:40.811Z,17.95
2017-07-11T07:19:50.066Z,17.82
2017-07-11T07:20:58.985Z,17.99
2017-07-11T07:22:07.907Z,18.05
2017-07-11T07:23:16.833Z,18.03
2017-07-11T07:24:25.760Z,17.97
2017-07-11T07:25:34.769Z,18
2017-07-11T07:26:43.689Z,18
2017-07-11T07:27:52.606Z,18.07
2017-07-11T07:29:01.611Z,18.1
2017-07-11T07:30:10.532Z,18.11
2017-07-11T07:31:19.455Z,18.15
2017-07-11T07:32:28.713Z,18.25
2017-07-11T07:33:37.629Z,18.35
2017-07-11T07:34:46.885Z,18.37
2017-07-11T07:35:55.793Z,18.37
2017-07-11T07:37:04.716Z,18.33
2017-07-11T07:38:13.632Z,18.39
2017-07-11T07:39:22.649Z,18.32
2017-07-11T07:40:31.575Z,18.36
2017-07-11T07:41:40.495Z,18.47
2017-07-11T07:42:49.420Z,18.58
2017-07-11T07:43:58.343Z,18.6
2017-07-11T07:45:07.258Z,18.55
2017-07-11T07:46:16.181Z,18.5
2017-07-11T07:47:25.103Z,18.52
2017-07-11T07:48:34.019Z,18.52
2017-07-11T07:49:42.933Z,18.58
2017-07-11T07:50:51.857Z,18.54
2017-07-11T07:52:00.865Z,18.72
2017-07-11T07:53:09.793Z,18.76
2017-07-11T07:54:18.718Z,18.82
2017-07-11T07:55:27.640Z,18.9
2017-07-11T07:56:36.567Z,18.99
2017-07-11T07:57:45.488Z,18.98
2017-07-11T07:58:54.498Z,18.99
2017-07-11T08:00:03.420Z,19.04
2017-07-11T08:01:12.342Z,19.13
2017-07-11T08:02:21.260Z,19.1
2017-07-11T08:03:30.180Z,19.08
2017-07-11T08:04:39.103Z,19.13
2017-07-11T08:05:48.023Z,19.22
2017-07-11T08:06:56.942Z,19.28
2017-07-11T08:08:05.863Z,19.36
2017-07-11T08:09:14.789Z,19.5
2017-07-11T08:10:23.710Z,19.46
2017-07-11T08:11:32.628Z,19.5
2017-07-11T08:12:41.547Z,19.61
2017-07-11T08:13:50.467Z,19.54
2017-07-11T08:14:59.389Z,19.61
2017-07-11T08:16:08.319Z,19.61
2017-07-11T08:17:17.243Z,19.68
2017-07-11T08:18:26.160Z,19.63
2017-07-11T08:19:35.075Z,19.74
2017-07-11T08:20:43.998Z,19.86
2017-07-11T08:21:52.925Z,19.87
2017-07-11T08:23:01.843Z,19.87
2017-07-11T08:24:10.763Z,19.87
2017-07-11T08:25:19.686Z,19.99
2017-07-11T08:26:28.606Z,19.87
2017-07-11T08:27:37.531Z,19.87
2017-07-11T08:28:46.541Z,19.91
2017-07-11T08:29:55.463Z,20.01
2017-07-11T08:31:04.389Z,20.02
2017-07-11T08:32:13.388Z,20.1
2017-07-11T08:33:22.306Z,20.1
2017-07-11T08:34:31.228Z,20.08
2017-07-11T08:35:40.147Z,20.23
2017-07-11T08:36:49.467Z,20.18
2017-07-11T08:37:58.386Z,20.16
2017-07-11T08:39:07.308Z,20.18
2017-07-11T08:40:16.223Z,20.13
2017-07-11T08:41:25.147Z,20.08
2017-07-11T08:42:34.077Z,20.08
2017-07-11T08:43:42.993Z,20.21
2017-07-11T08:44:51.914Z,20.24
2017-07-11T08:46:00.836Z,20.38
2017-07-11T08:47:09.758Z,20.39
2017-07-11T08:48:18.677Z,20.55
2017-07-11T08:49:27.590Z,20.58
2017-07-11T08:50:36.515Z,20.59
2017-07-11T08:51:45.764Z,20.64
2017-07-11T08:52:54.766Z,20.74
2017-07-11T08:54:03.687Z,20.82
2017-07-11T08:55:12.611Z,20.92
2017-07-11T08:56:21.528Z,20.95
2017-07-11T08:57:30.453Z,21.01
2017-07-11T08:58:39.374Z,21.06
2017-07-11T08:59:48.298Z,21.17
2017-07-11T09:00:57.218Z,21.13
2017-07-11T09:02:06.139Z,21.13
2017-07-11T09:03:15.063Z,21.19
2017-07-11T09:04:23.983Z,21.14
2017-07-11T09:05:32.908Z,21.09
2017-07-11T09:06:41.831Z,21.1
2017-07-11T09:07:50.754Z,21.12
2017-07-11T09:08:59.683Z,21.31
2017-07-11T09:10:08.606Z,21.29
2017-07-11T09:11:17.527Z,21.4
2017-07-11T09:12:26.445Z,21.44
2017-07-11T09:13:35.367Z,21.44
2017-07-11T09:14:44.290Z,21.42
2017-07-11T09:15:53.205Z,21.34
2017-07-11T09:17:02.127Z,21.32
2017-07-11T09:18:11.383Z,21.46
2017-07-11T09:19:20.299Z,21.46
2017-07-11T09:20:29.218Z,21.4
2017-07-11T09:21:38.132Z,21.4
2017-07-11T09:22:47.050Z,21.42
2017-07-11T09:23:55.977Z,21.56
2017-07-11T09:25:04.890Z,21.59
2017-07-11T09:26:13.802Z,21.62
2017-07-11T09:27:22.726Z,21.69
2017-07-11T09:28:31.649Z,21.74
2017-07-11T09:29:40.568Z,21.75
2017-07-11T09:30:49.487Z,21.74
2017-07-11T09:31:58.406Z,21.79
2017-07-11T09:33:07.330Z,21.83
2017-07-11T09:34:16.252Z,21.72
2017-07-11T09:35:25.166Z,21.83
2017-07-11T09:36:34.094Z,21.91
2017-07-11T09:37:43.021Z,22.03
2017-07-11T09:38:51.945Z,22.02
2017-07-11T09:40:00.870Z,21.99
2017-07-11T09:41:09.794Z,22.03
2017-07-11T09:42:18.712Z,22.02
2017-07-11T09:43:27.630Z,22.05
2017-07-11T09:44:36.553Z,22.14
2017-07-11T09:45:45.474Z,22
2017-07-11T09:46:54.404Z,21.84
2017-07-11T09:48:03.329Z,21.92
2017-07-11T09:49:12.253Z,21.92
2017-07-11T09:50:21.183Z,21.88
2017-07-11T09:51:30.105Z,21.91
2017-07-11T09:52:39.359Z,21.88
2017-07-11T09:53:48.280Z,21.99
2017-07-11T09:54:57.204Z,22.12
2017-07-11T09:56:06.125Z,22.15
2017-07-11T09:57:15.046Z,22.2
2017-07-11T09:58:23.965Z,22.28
2017-07-11T09:59:32.885Z,22.31
2017-07-11T10:00:41.811Z,22.3
2017-07-11T10:01:50.740Z,22.12
2017-07-11T10:02:59.659Z,22.14
2017-07-11T10:04:08.586Z,22.14
2017-07-11T10:05:17.594Z,22.21
2017-07-11T10:06:26.523Z,22.28
2017-07-11T10:07:35.441Z,22.28
2017-07-11T10:08:44.365Z,22.36
2017-07-11T10:09:53.292Z,22.24
2017-07-11T10:11:02.211Z,22.39
2017-07-11T10:12:11.138Z,22.24
2017-07-11T10:13:20.056Z,22.2
2017-07-11T10:14:28.969Z,22.18
2017-07-11T10:15:37.892Z,22.12
2017-07-11T10:16:46.816Z,22.12
2017-07-11T10:17:55.741Z,22.1
2017-07-11T10:19:04.673Z,22.1
2017-07-11T10:20:13.601Z,22.1
2017-07-11T10:21:22.525Z,22.12
2017-07-11T10:22:31.452Z,22.1
2017-07-11T10:23:40.379Z,21.99
2017-07-11T10:24:49.298Z,21.94
2017-07-11T10:25:58.231Z,21.98
2017-07-11T10:27:07.153Z,22.14
2017-07-11T10:28:16.087Z,22.24
2017-07-11T10:29:25.756Z,22.24
2017-07-11T10:30:34.684Z,22.39
2017-07-11T10:31:43.691Z,22.4
2017-07-11T10:32:52.613Z,22.45
2017-07-11T10:34:01.529Z,22.52
2017-07-11T10:35:10.452Z,22.58
2017-07-11T10:36:19.383Z,22.73
2017-07-11T10:37:28.306Z,22.64
2017-07-11T10:38:37.228Z,22.57
2017-07-11T10:39:46.149Z,22.55
2017-07-11T10:40:55.082Z,22.49
2017-07-11T10:42:04.012Z,22.55
2017-07-11T10:43:12.939Z,22.54
2017-07-11T10:44:21.861Z,22.58
2017-07-11T10:45:30.784Z,22.7
2017-07-11T10:46:39.714Z,22.7
2017-07-11T10:47:48.639Z,22.7
2017-07-11T10:48:57.649Z,22.72
2017-07-11T10:50:06.573Z,22.7
2017-07-11T10:51:15.493Z,22.65
2017-07-11T10:52:24.423Z,22.75
2017-07-11T10:53:33.431Z,22.72
2017-07-11T10:54:42.354Z,22.7
2017-07-11T10:55:51.283Z,22.88
2017-07-11T10:57:00.205Z,22.86
2017-07-11T10:58:09.132Z,22.94
2017-07-11T10:59:18.057Z,22.98
2017-07-11T11:00:26.982Z,23.02
2017-07-11T11:01:35.901Z,22.92
2017-07-11T11:02:44.831Z,23
2017-07-11T11:03:53.758Z,23.12
2017-07-11T11:05:02.676Z,23.2
2017-07-11T11:06:11.602Z,23.13
2017-07-11T11:07:20.525Z,23.16
2017-07-11T11:08:29.445Z,23.19
2017-07-11T11:09:38.374Z,23.27
2017-07-11T11:10:47.305Z,23.25
2017-07-11T11:11:56.233Z,23.32
2017-07-11T11:13:05.151Z,23.39
2017-07-11T11:14:14.072Z,23.42
2017-07-11T11:15:23.002Z,23.43
2017-07-11T11:16:31.925Z,23.4
2017-07-11T11:17:40.848Z,23.38
2017-07-11T11:18:49.777Z,23.32
2017-07-11T11:19:58.710Z,23.36
2017-07-11T11:21:07.637Z,23.32
2017-07-11T11:22:16.562Z,23.23
2017-07-11T11:23:25.485Z,23.32
2017-07-11T11:24:34.414Z,23.31
2017-07-11T11:25:43.343Z,23.48
2017-07-11T11:26:52.267Z,23.51
2017-07-11T11:28:01.188Z,23.46
2017-07-11T11:29:10.107Z,23.43
2017-07-11T11:30:19.035Z,23.43
2017-07-11T11:31:28.039Z,23.35
2017-07-11T11:32:36.970Z,23.35
2017-07-11T11:33:46.219Z,23.28
2017-07-11T11:34:55.145Z,23.23
2017-07-11T11:36:04.069Z,23.16
2017-07-11T11:37:12.993Z,23.1
2017-07-11T11:38:21.916Z,23.07
2017-07-11T11:39:30.841Z,23.04
2017-07-11T11:40:39.765Z,23.12
2017-07-11T11:41:48.682Z,23.07
2017-07-11T11:42:57.614Z,23.12
2017-07-11T11:44:06.548Z,23.05
2017-07-11T11:45:15.469Z,23.12
2017-07-11T11:46:24.481Z,23.15
2017-07-11T11:47:33.405Z,23.04
2017-07-11T11:48:42.331Z,23.19
2017-07-11T11:49:51.250Z,23.31
2017-07-11T11:51:00.176Z,23.35
2017-07-11T11:52:09.102Z,23.35
2017-07-11T11:53:18.023Z,23.33
2017-07-11T11:54:26.953Z,23.23
2017-07-11T11:55:35.884Z,23.35
2017-07-11T11:56:44.801Z,23.43
2017-07-11T11:57:53.730Z,23.47
2017-07-11T11:59:02.658Z,23.47
2017-07-11T12:00:11.583Z,23.36
2017-07-11T12:01:20.512Z,23.33
2017-07-11T12:02:29.434Z,23.33
2017-07-11T12:03:38.356Z,23.35
2017-07-11T12:04:47.272Z,23.31
2017-07-11T12:05:56.205Z,23.28
2017-07-11T12:07:05.213Z,23.43
2017-07-11T12:08:14.134Z,23.47
2017-07-11T12:09:23.058Z,23.53
2017-07-11T12:10:31.979Z,23.63
2017-07-11T12:11:40.900Z,23.75
2017-07-11T12:12:49.826Z,23.83
2017-07-11T12:13:58.752Z,23.85
2017-07-11T12:15:07.682Z,23.87
2017-07-11T12:16:16.604Z,23.85
2017-07-11T12:17:25.527Z,23.83
2017-07-11T12:18:34.458Z,23.87
2017-07-11T12:19:43.377Z,23.8
2017-07-11T12:20:52.305Z,23.8
2017-07-11T12:22:01.231Z,23.87
2017-07-11T12:23:10.149Z,23.78
2017-07-11T12:24:19.069Z,23.76
2017-07-11T12:25:27.992Z,23.88
2017-07-11T12:26:36.914Z,24
2017-07-11T12:27:45.842Z,23.94
2017-07-11T12:28:54.766Z,24.05
2017-07-11T12:30:03.694Z,24.06
2017-07-11T12:31:12.627Z,24.08
2017-07-11T12:32:21.552Z,24.15
2017-07-11T12:33:30.479Z,24.2
2017-07-11T12:34:39.398Z,24.16
2017-07-11T12:35:48.322Z,24.12
2017-07-11T12:36:57.249Z,24.12
2017-07-11T12:38:06.174Z,24.09
2017-07-11T12:39:15.100Z,24.08
2017-07-11T12:40:24.027Z,24.1
2017-07-11T12:41:32.958Z,24.1
2017-07-11T12:42:41.887Z,24.1
2017-07-11T12:43:50.811Z,24.15
2017-07-11T12:44:59.819Z,24.13
2017-07-11T12:46:08.745Z,24.15
2017-07-11T12:47:17.672Z,24.05
2017-07-11T12:48:26.597Z,24.16
2017-07-11T12:49:35.522Z,24.13
2017-07-11T12:50:44.445Z,24.2
2017-07-11T12:51:53.369Z,24.3
2017-07-11T12:53:02.290Z,24.2
2017-07-11T12:54:11.214Z,24.24
2017-07-11T12:55:20.139Z,24.34
2017-07-11T12:56:29.398Z,24.28
2017-07-11T12:57:38.330Z,24.3
2017-07-11T12:58:47.252Z,24.3
2017-07-11T12:59:56.179Z,24.32
2017-07-11T13:01:05.189Z,24.28
2017-07-11T13:02:14.114Z,24.25
2017-07-11T13:03:23.031Z,24.21
2017-07-11T13:04:31.954Z,24.1
2017-07-11T13:05:40.880Z,24.06
2017-07-11T13:06:49.801Z,23.88
2017-07-11T13:07:58.734Z,23.88
2017-07-11T13:09:07.663Z,23.85
2017-07-11T13:10:16.586Z,23.97
2017-07-11T13:11:25.588Z,23.94
2017-07-11T13:12:34.516Z,24
2017-07-11T13:13:43.441Z,23.97
2017-07-11T13:14:52.375Z,23.93
2017-07-11T13:16:01.295Z,23.95
2017-07-11T13:17:10.226Z,23.95
2017-07-11T13:18:19.145Z,24.02
2017-07-11T13:19:28.073Z,24
2017-07-11T13:20:37.000Z,24.06
2017-07-11T13:21:45.934Z,24.08
2017-07-11T13:22:54.846Z,24.13
2017-07-11T13:24:03.773Z,24.18
2017-07-11T13:25:12.699Z,24.2
2017-07-11T13:26:21.621Z,24.15
2017-07-11T13:27:30.543Z,24.13
2017-07-11T13:28:39.459Z,24.12
2017-07-11T13:29:48.379Z,24.13
2017-07-11T13:30:57.304Z,24.15
2017-07-11T13:32:06.232Z,24.08
2017-07-11T13:33:15.159Z,24.12
2017-07-11T13:34:24.079Z,24.08
2017-07-11T13:35:33.008Z,24.03
2017-07-11T13:36:41.939Z,23.95
2017-07-11T13:37:50.860Z,23.87
2017-07-11T13:38:59.791Z,23.93
2017-07-11T13:40:08.719Z,23.8
2017-07-11T13:41:17.643Z,23.7
2017-07-11T13:42:26.569Z,23.8
2017-07-11T13:43:35.496Z,23.76
2017-07-11T13:44:44.423Z,23.65
2017-07-11T13:45:53.346Z,23.66
2017-07-11T13:47:02.271Z,23.63
2017-07-11T13:48:11.193Z,23.65
2017-07-11T13:49:20.119Z,23.61
2017-07-11T13:50:29.127Z,23.6
2017-07-11T13:51:38.047Z,23.65
2017-07-11T13:52:46.968Z,23.58
2017-07-11T13:53:55.890Z,23.69
2017-07-11T13:55:04.814Z,23.69
2017-07-11T13:56:13.738Z,23.65
2017-07-11T13:57:22.668Z,23.7
2017-07-11T13:58:31.600Z,23.66
2017-07-11T13:59:40.518Z,23.61
2017-07-11T14:00:49.441Z,23.63
2017-07-11T14:01:58.369Z,23.61
2017-07-11T14:03:07.314Z,23.57
2017-07-11T14:04:16.230Z,23.6
2017-07-11T14:05:25.157Z,23.53
2017-07-11T14:06:34.075Z,23.6
2017-07-11T14:07:42.999Z,23.48
2017-07-11T14:08:51.912Z,23.54
2017-07-11T14:10:00.832Z,23.4
2017-07-11T14:11:09.764Z,23.27
2017-07-11T14:12:18.689Z,23.23
2017-07-11T14:13:27.609Z,23.2
2017-07-11T14:14:36.536Z,23.16
2017-07-11T14:15:45.545Z,23.16
2017-07-11T14:16:54.467Z,23.15
2017-07-11T14:18:03.395Z,23.12
2017-07-11T14:19:12.317Z,23.13
2017-07-11T14:20:21.318Z,23.17
2017-07-11T14:21:30.239Z,23.19
2017-07-11T14:22:39.159Z,23.19
2017-07-11T14:23:48.085Z,23.2
2017-07-11T14:24:57.011Z,23.16
2017-07-11T14:26:05.937Z,23.32
2017-07-11T14:27:14.858Z,23.22
2017-07-11T14:28:23.786Z,23.16
2017-07-11T14:29:32.709Z,23.13
2017-07-11T14:30:41.634Z,23.12
2017-07-11T14:31:50.559Z,23.09
2017-07-11T14:32:59.483Z,23.15
2017-07-11T14:34:08.415Z,23.07
2017-07-11T14:35:17.338Z,23.09
2017-07-11T14:36:26.310Z,23.16
2017-07-11T14:37:35.179Z,23.16
2017-07-11T14:38:44.102Z,23.1
2017-07-11T14:39:53.027Z,23.22
2017-07-11T14:41:01.941Z,23.33
2017-07-11T14:42:10.872Z,23.23
2017-07-11T14:43:19.797Z,23.31
2017-07-11T14:44:28.722Z,23.46
2017-07-11T14:45:37.649Z,23.43
2017-07-11T14:46:46.573Z,23.51
2017-07-11T14:47:55.501Z,23.65
2017-07-11T14:49:04.424Z,23.6
2017-07-11T14:50:13.350Z,23.58
2017-07-11T14:51:22.268Z,23.68
2017-07-11T14:52:31.194Z,23.68